createdAt,value
2023-05-06T00:00:56.908Z,12.23
2023-05-06T00:03:59.991Z,12.24
2023-05-06T00:07:02.919Z,12.05
2023-05-06T00:10:06.705Z,12.13
2023-05-06T00:13:09.590Z,12.18
2023-05-06T00:16:12.846Z,12.19
2023-05-06T00:19:15.675Z,12.15
2023-05-06T00:22:18.831Z,12.21
2023-05-06T00:25:21.897Z,12.23
2023-05-06T00:28:25.521Z,12.27
2023-05-06T00:31:28.422Z,12.46
2023-05-06T00:34:31.490Z,12.50
2023-05-06T00:37:34.153Z,12.58
2023-05-06T00:40:37.424Z,12.48
2023-05-06T00:43:40.219Z,12.40
2023-05-06T00:46:43.999Z,12.20
2023-05-06T00:49:47.242Z,12.10
2023-05-06T00:52:51.120Z,12.18
2023-05-06T00:55:54.299Z,12.28
2023-05-06T00:58:58.013Z,12.20
2023-05-06T01:02:01.231Z,12.14
2023-05-06T01:05:05.890Z,12.11
2023-05-06T01:08:25.635Z,12.20
2023-05-06T01:11:38.868Z,12.24
2023-05-06T01:14:55.987Z,12.22
2023-05-06T01:18:01.134Z,12.17
2023-05-06T01:21:05.634Z,12.25
2023-05-06T01:24:09.032Z,12.25
2023-05-06T01:27:14.072Z,12.29
2023-05-06T01:30:19.891Z,12.30
2023-05-06T01:33:48.553Z,12.28
2023-05-06T01:37:22.487Z,11.96
2023-05-06T01:40:27.483Z,11.73
2023-05-06T01:43:38.412Z,11.70
2023-05-06T01:46:43.138Z,11.76
2023-05-06T01:49:48.251Z,11.62
2023-05-06T01:53:01.469Z,11.57
2023-05-06T01:56:05.428Z,11.44
2023-05-06T01:59:08.116Z,11.14
2023-05-06T02:02:11.501Z,11.04
2023-05-06T02:05:14.498Z,10.99
2023-05-06T02:08:18.229Z,11.00
2023-05-06T02:11:21.520Z,11.02
2023-05-06T02:14:24.993Z,11.14
2023-05-06T02:17:28.504Z,11.24
2023-05-06T02:20:32.114Z,11.15
2023-05-06T02:23:35.296Z,11.23
2023-05-06T02:26:38.325Z,11.10
2023-05-06T02:29:40.970Z,11.15
2023-05-06T02:32:44.111Z,11.13
2023-05-06T02:35:46.915Z,11.10
2023-05-06T02:38:52.527Z,11.08
2023-05-06T02:41:55.250Z,11.09
2023-05-06T02:44:58.283Z,11.02
2023-05-06T02:48:01.051Z,10.92
2023-05-06T02:51:06.465Z,10.88
2023-05-06T02:54:09.248Z,11.02
2023-05-06T02:57:12.373Z,11.14
2023-05-06T03:00:15.717Z,11.25
2023-05-06T03:03:18.897Z,11.18
2023-05-06T03:06:21.941Z,11.25
2023-05-06T03:09:25.007Z,11.36
2023-05-06T03:12:27.903Z,11.53
2023-05-06T03:15:32.744Z,11.51
2023-05-06T03:18:35.469Z,11.49
2023-05-06T03:21:39.091Z,11.59
2023-05-06T03:24:41.890Z,11.57
2023-05-06T03:27:45.034Z,11.28
2023-05-06T03:30:48.817Z,11.21
2023-05-06T03:33:52.754Z,11.15
2023-05-06T03:36:56.281Z,10.74
2023-05-06T03:40:04.064Z,10.88
2023-05-06T03:43:07.393Z,10.97
2023-05-06T03:46:11.547Z,10.91
2023-05-06T03:49:15.584Z,10.83
2023-05-06T03:52:20.042Z,10.82
2023-05-06T03:55:23.153Z,10.88
2023-05-06T03:58:26.566Z,10.88
2023-05-06T04:01:29.351Z,10.86
2023-05-06T04:04:32.702Z,10.86
2023-05-06T04:07:35.436Z,10.95
2023-05-06T04:10:41.944Z,10.99
2023-05-06T04:13:45.861Z,10.91
2023-05-06T04:16:49.541Z,10.94
2023-05-06T04:19:54.015Z,11.01
2023-05-06T04:22:57.498Z,11.06
2023-05-06T04:26:01.451Z,11.12
2023-05-06T04:29:05.200Z,11.19
2023-05-06T04:32:10.496Z,11.17
2023-05-06T04:35:13.860Z,11.31
2023-05-06T04:38:17.738Z,11.36
2023-05-06T04:41:20.987Z,11.34
2023-05-06T04:44:23.934Z,11.48
2023-05-06T04:47:28.094Z,11.60
2023-05-06T04:50:30.982Z,11.77
2023-05-06T04:53:34.209Z,11.99
2023-05-06T04:56:37.141Z,12.30
2023-05-06T04:59:42.773Z,12.63
2023-05-06T05:02:47.108Z,12.97
2023-05-06T05:05:50.904Z,13.23
2023-05-06T05:08:55.417Z,13.56
2023-05-06T05:11:59.240Z,13.97
2023-05-06T05:15:02.486Z,14.31
2023-05-06T05:18:06.379Z,14.69
2023-05-06T05:21:10.307Z,15.26
2023-05-06T05:24:13.592Z,15.44
2023-05-06T05:27:16.628Z,15.87
2023-05-06T05:30:20.262Z,15.87
2023-05-06T05:33:23.573Z,15.80
2023-05-06T05:36:27.811Z,15.97
2023-05-06T05:39:31.072Z,16.04
2023-05-06T05:42:34.675Z,16.08
2023-05-06T05:45:38.283Z,16.14
2023-05-06T05:48:42.128Z,16.17
2023-05-06T05:51:46.226Z,16.24
2023-05-06T05:54:51.576Z,16.37
2023-05-06T05:57:55.164Z,16.36
2023-05-06T06:00:58.888Z,16.61
2023-05-06T06:04:02.968Z,16.68
2023-05-06T06:07:06.161Z,16.95
2023-05-06T06:10:10.253Z,17.08
2023-05-06T06:13:13.611Z,17.17
2023-05-06T06:16:17.423Z,17.34
2023-05-06T06:19:20.596Z,17.44
2023-05-06T06:22:24.482Z,17.82
2023-05-06T06:25:27.767Z,18.08
2023-05-06T06:28:31.498Z,18.53
2023-05-06T06:31:35.079Z,18.86
2023-05-06T06:34:38.125Z,18.93
2023-05-06T06:37:40.818Z,19.19
2023-05-06T06:40:44.002Z,19.36
2023-05-06T06:43:46.730Z,19.51
2023-05-06T06:46:50.632Z,19.58
2023-05-06T06:49:54.109Z,19.90
2023-05-06T06:52:57.207Z,20.26
2023-05-06T06:55:59.911Z,20.47
2023-05-06T06:59:02.849Z,20.59
2023-05-06T07:02:05.767Z,20.76
2023-05-06T07:05:09.540Z,21.10
2023-05-06T07:08:12.590Z,21.48
2023-05-06T07:11:15.795Z,22.05
2023-05-06T07:14:18.421Z,22.05
2023-05-06T07:17:21.647Z,22.18
2023-05-06T07:20:24.339Z,22.86
2023-05-06T07:23:32.019Z,22.37
2023-05-06T07:26:38.531Z,21.91
2023-05-06T07:29:41.572Z,21.93
2023-05-06T07:32:44.229Z,21.60
2023-05-06T07:35:47.198Z,21.70
2023-05-06T07:38:50.747Z,21.83
2023-05-06T07:41:53.885Z,22.27
2023-05-06T07:44:56.659Z,22.60
2023-05-06T07:47:59.747Z,22.84
2023-05-06T07:51:03.421Z,23.36
2023-05-06T07:54:06.574Z,23.18
2023-05-06T07:57:09.527Z,22.95
2023-05-06T08:00:13.110Z,23.61
2023-05-06T08:03:17.209Z,23.55
2023-05-06T08:06:20.452Z,23.41
2023-05-06T08:09:23.426Z,23.72
2023-05-06T08:12:26.467Z,23.78
2023-05-06T08:15:29.282Z,24.42
2023-05-06T08:18:32.763Z,24.41
2023-05-06T08:21:35.707Z,23.91
2023-05-06T08:24:38.721Z,23.50
2023-05-06T08:27:41.365Z,23.77
2023-05-06T08:30:47.855Z,23.66
2023-05-06T08:33:53.072Z,23.34
2023-05-06T08:36:57.509Z,23.30
2023-05-06T08:40:00.210Z,22.95
2023-05-06T08:43:05.540Z,23.07
2023-05-06T08:46:09.053Z,23.22
2023-05-06T08:49:12.169Z,23.00
2023-05-06T08:52:15.381Z,22.93
2023-05-06T08:55:19.562Z,23.05
2023-05-06T08:58:24.949Z,23.05
2023-05-06T09:01:29.257Z,22.84
2023-05-06T09:04:32.076Z,22.49
2023-05-06T09:07:35.224Z,22.71
2023-05-06T09:10:45.140Z,22.60
2023-05-06T09:13:48.270Z,22.59
2023-05-06T09:16:53.540Z,22.82
2023-05-06T09:19:57.738Z,22.88
2023-05-06T09:23:01.739Z,23.05
2023-05-06T09:26:05.670Z,23.01
2023-05-06T09:29:08.720Z,23.01
2023-05-06T09:32:14.737Z,23.24
2023-05-06T09:35:17.682Z,23.66
2023-05-06T09:38:21.954Z,24.48
2023-05-06T09:41:25.767Z,25.52
2023-05-06T09:44:29.527Z,26.56
2023-05-06T09:47:35.887Z,27.30
2023-05-06T09:50:39.604Z,27.92
2023-05-06T09:53:44.693Z,28.03
2023-05-06T09:56:48.469Z,26.19
2023-05-06T09:59:54.338Z,26.72
2023-05-06T10:02:59.546Z,27.20
2023-05-06T10:06:06.312Z,27.17
2023-05-06T10:09:10.641Z,26.55
2023-05-06T10:12:14.157Z,26.04
2023-05-06T10:15:17.076Z,25.52
2023-05-06T10:18:22.149Z,24.46
2023-05-06T10:21:28.046Z,24.21
2023-05-06T10:24:37.190Z,23.78
2023-05-06T10:27:43.989Z,23.49
2023-05-06T10:30:49.651Z,23.28
2023-05-06T10:33:54.887Z,23.31
2023-05-06T10:37:00.394Z,23.29
2023-05-06T10:40:04.927Z,23.01
2023-05-06T10:43:21.426Z,22.86
2023-05-06T10:46:26.556Z,22.68
2023-05-06T10:49:29.994Z,22.76
2023-05-06T10:52:46.749Z,22.41
2023-05-06T10:56:09.599Z,22.13
2023-05-06T10:59:13.210Z,22.11
2023-05-06T11:02:20.430Z,21.81
2023-05-06T11:05:24.284Z,21.44
2023-05-06T11:08:27.688Z,21.18
2023-05-06T11:11:49.240Z,21.11
2023-05-06T11:14:52.336Z,21.11
2023-05-06T11:17:59.709Z,21.02
2023-05-06T11:21:02.985Z,20.72
2023-05-06T11:24:06.836Z,20.70
2023-05-06T11:27:11.335Z,20.43
2023-05-06T11:30:15.271Z,20.23
2023-05-06T11:33:21.849Z,20.06
2023-05-06T11:36:24.408Z,20.06
2023-05-06T11:39:39.324Z,19.98
2023-05-06T11:42:43.327Z,19.96
2023-05-06T11:45:50.488Z,19.92
2023-05-06T11:48:53.145Z,19.80
2023-05-06T11:51:57.416Z,19.64
2023-05-06T11:55:00.163Z,19.48
2023-05-06T11:58:03.207Z,19.25
2023-05-06T12:01:05.947Z,18.88
2023-05-06T12:04:09.464Z,18.66
2023-05-06T12:07:14.389Z,18.37
2023-05-06T12:10:18.335Z,18.07
2023-05-06T12:13:23.490Z,17.76
2023-05-06T12:16:27.287Z,17.46
2023-05-06T12:19:31.768Z,17.15
2023-05-06T12:22:35.343Z,17.04
2023-05-06T12:25:39.824Z,16.95
2023-05-06T12:28:44.082Z,16.98
2023-05-06T12:31:48.256Z,16.94
2023-05-06T12:34:51.399Z,16.82
2023-05-06T12:37:54.153Z,16.46
2023-05-06T12:40:57.413Z,16.37
2023-05-06T12:44:00.178Z,16.49
2023-05-06T12:47:08.034Z,16.57
2023-05-06T12:50:11.123Z,16.78
2023-05-06T12:53:14.317Z,16.72
2023-05-06T12:56:17.242Z,16.91
2023-05-06T12:59:20.536Z,16.86
2023-05-06T13:02:23.256Z,16.83
2023-05-06T13:05:26.394Z,17.02
2023-05-06T13:08:29.715Z,17.16
2023-05-06T13:11:32.719Z,17.31
2023-05-06T13:14:37.729Z,17.67
2023-05-06T13:17:42.299Z,17.89
2023-05-06T13:20:47.068Z,18.30
2023-05-06T13:23:50.145Z,18.51
2023-05-06T13:26:53.103Z,18.62
2023-05-06T13:29:56.104Z,18.90
2023-05-06T13:32:58.956Z,19.38
2023-05-06T13:36:04.583Z,20.09
2023-05-06T13:39:11.896Z,20.73
2023-05-06T13:42:14.977Z,20.25
2023-05-06T13:45:17.813Z,19.13
2023-05-06T13:48:20.954Z,19.64
2023-05-06T13:51:24.052Z,19.56
2023-05-06T13:54:27.150Z,19.97
2023-05-06T13:57:29.859Z,21.13
2023-05-06T14:00:34.549Z,21.09
2023-05-06T14:03:37.628Z,21.30
2023-05-06T14:06:43.599Z,21.57
2023-05-06T14:09:46.691Z,21.72
2023-05-06T14:12:49.526Z,21.16
2023-05-06T14:15:54.408Z,21.33
2023-05-06T14:18:57.145Z,21.98
2023-05-06T14:22:00.202Z,22.14
2023-05-06T14:25:03.011Z,21.97
2023-05-06T14:28:11.040Z,21.96
2023-05-06T14:31:13.840Z,21.72
2023-05-06T14:34:17.244Z,21.57
2023-05-06T14:37:19.930Z,21.52
2023-05-06T14:40:23.051Z,21.24
2023-05-06T14:43:25.893Z,21.06
2023-05-06T14:46:29.777Z,21.04
2023-05-06T14:49:32.602Z,21.08
2023-05-06T14:52:36.608Z,21.15
2023-05-06T14:55:41.644Z,21.06
2023-05-06T14:58:44.722Z,21.02
2023-05-06T15:01:47.389Z,21.03
2023-05-06T15:04:50.905Z,21.08
2023-05-06T15:07:55.131Z,20.88
2023-05-06T15:10:58.155Z,20.98
2023-05-06T15:14:00.864Z,20.93
2023-05-06T15:17:03.944Z,20.87
2023-05-06T15:20:08.931Z,20.76
2023-05-06T15:23:11.918Z,20.71
2023-05-06T15:26:14.743Z,20.83
2023-05-06T15:29:20.725Z,20.85
2023-05-06T15:32:23.696Z,20.95
2023-05-06T15:35:27.372Z,21.00
2023-05-06T15:38:53.352Z,21.03
2023-05-06T15:41:59.881Z,21.06
2023-05-06T15:45:02.612Z,21.02
2023-05-06T15:48:05.690Z,21.01
2023-05-06T15:51:08.605Z,20.88
2023-05-06T15:54:11.575Z,20.78
2023-05-06T15:57:15.221Z,20.81
2023-05-06T16:00:18.417Z,20.71
2023-05-06T16:03:21.750Z,20.62
2023-05-06T16:06:24.947Z,20.50
2023-05-06T16:09:28.040Z,20.45
2023-05-06T16:12:32.809Z,20.46
2023-05-06T16:15:35.916Z,20.43
2023-05-06T16:18:38.611Z,20.35
2023-05-06T16:21:41.544Z,20.29
2023-05-06T16:24:44.358Z,20.32
2023-05-06T16:27:47.419Z,20.34
2023-05-06T16:30:50.076Z,20.36
2023-05-06T16:33:53.168Z,20.35
2023-05-06T16:36:57.365Z,20.27
2023-05-06T16:40:00.907Z,20.16
2023-05-06T16:43:03.575Z,20.07
2023-05-06T16:46:06.781Z,19.97
2023-05-06T16:49:09.704Z,19.73
2023-05-06T16:52:13.077Z,19.69
2023-05-06T16:55:16.006Z,19.44
2023-05-06T16:58:19.676Z,19.15
2023-05-06T17:01:22.367Z,19.12
2023-05-06T17:04:25.496Z,18.96
2023-05-06T17:07:28.200Z,18.86
2023-05-06T17:10:31.257Z,18.80
2023-05-06T17:13:34.693Z,18.80
2023-05-06T17:16:39.018Z,18.66
2023-05-06T17:19:41.955Z,18.61
2023-05-06T17:22:44.974Z,18.32
2023-05-06T17:25:47.600Z,18.42
2023-05-06T17:28:51.351Z,18.34
2023-05-06T17:31:54.181Z,18.34
2023-05-06T17:34:57.252Z,18.20
2023-05-06T17:38:00.008Z,18.18
2023-05-06T17:41:03.106Z,18.16
2023-05-06T17:44:06.888Z,18.10
2023-05-06T17:47:10.514Z,17.90
2023-05-06T17:50:13.327Z,17.90
2023-05-06T17:53:16.463Z,17.86
2023-05-06T17:56:20.520Z,17.88
2023-05-06T17:59:25.624Z,17.74
2023-05-06T18:02:29.122Z,17.58
2023-05-06T18:05:32.339Z,17.62
2023-05-06T18:08:35.381Z,17.72
2023-05-06T18:11:39.415Z,17.68
2023-05-06T18:14:45.212Z,17.74
2023-05-06T18:17:48.234Z,17.74
2023-05-06T18:20:51.410Z,17.65
2023-05-06T18:24:01.906Z,17.56
2023-05-06T18:27:08.481Z,17.42
2023-05-06T18:30:11.868Z,17.26
2023-05-06T18:33:14.686Z,17.20
2023-05-06T18:36:18.045Z,17.04
2023-05-06T18:39:23.722Z,16.88
2023-05-06T18:42:27.910Z,16.73
2023-05-06T18:45:30.947Z,16.59
2023-05-06T18:48:34.153Z,16.37
2023-05-06T18:51:37.068Z,16.10
2023-05-06T18:54:41.241Z,15.93
2023-05-06T18:57:44.432Z,15.80
2023-05-06T19:00:47.493Z,15.74
2023-05-06T19:03:50.332Z,15.76
2023-05-06T19:06:53.498Z,15.76
2023-05-06T19:09:56.337Z,15.81
2023-05-06T19:12:59.396Z,15.74
2023-05-06T19:16:02.194Z,15.71
2023-05-06T19:19:08.534Z,15.70
2023-05-06T19:22:11.281Z,15.68
2023-05-06T19:25:14.622Z,15.71
2023-05-06T19:28:17.375Z,15.63
2023-05-06T19:31:21.212Z,15.72
2023-05-06T19:34:24.023Z,15.77
2023-05-06T19:37:30.291Z,15.78
2023-05-06T19:40:35.278Z,15.97
2023-05-06T19:43:45.064Z,16.02
2023-05-06T19:46:52.378Z,16.05
2023-05-06T19:49:56.036Z,16.04
2023-05-06T19:52:58.889Z,15.87
2023-05-06T19:56:12.811Z,15.87
2023-05-06T19:59:17.672Z,15.84
2023-05-06T20:02:21.207Z,16.00
2023-05-06T20:05:25.274Z,16.01
2023-05-06T20:08:28.713Z,15.96
2023-05-06T20:11:32.121Z,15.80
2023-05-06T20:14:35.116Z,15.73
2023-05-06T20:17:40.776Z,15.59
2023-05-06T20:20:44.310Z,15.27
2023-05-06T20:23:47.410Z,15.08
2023-05-06T20:26:50.740Z,15.07
2023-05-06T20:29:53.656Z,15.12
2023-05-06T20:32:56.844Z,15.06
2023-05-06T20:35:59.914Z,15.15
2023-05-06T20:39:03.086Z,15.07
2023-05-06T20:42:06.529Z,15.02
2023-05-06T20:45:10.153Z,15.15
2023-05-06T20:48:14.953Z,15.04
2023-05-06T20:51:18.246Z,14.79
2023-05-06T20:54:21.193Z,14.68
2023-05-06T20:57:23.874Z,14.64
2023-05-06T21:00:26.984Z,14.86
2023-05-06T21:03:30.627Z,14.97
2023-05-06T21:06:33.771Z,15.00
2023-05-06T21:09:38.272Z,15.06
2023-05-06T21:12:47.864Z,14.96
2023-05-06T21:15:50.758Z,14.94
2023-05-06T21:18:53.806Z,14.31
2023-05-06T21:21:56.968Z,14.52
2023-05-06T21:24:59.967Z,14.55
2023-05-06T21:28:06.768Z,14.56
2023-05-06T21:31:09.739Z,14.61
2023-05-06T21:34:12.636Z,14.74
2023-05-06T21:37:15.578Z,14.96
2023-05-06T21:40:18.507Z,14.97
2023-05-06T21:43:21.708Z,15.01
2023-05-06T21:46:24.634Z,14.88
2023-05-06T21:49:27.791Z,14.84
2023-05-06T21:52:31.195Z,14.76
2023-05-06T21:55:34.204Z,14.49
2023-05-06T21:58:37.016Z,14.49
2023-05-06T22:01:40.266Z,14.42
2023-05-06T22:04:43.639Z,14.51
2023-05-06T22:07:46.508Z,14.57
2023-05-06T22:10:49.535Z,14.67
2023-05-06T22:13:52.337Z,14.74
2023-05-06T22:16:55.401Z,14.89
2023-05-06T22:19:58.340Z,14.76
2023-05-06T22:23:01.997Z,14.64
2023-05-06T22:26:05.422Z,14.55
2023-05-06T22:29:08.746Z,14.65
2023-05-06T22:32:11.469Z,14.53
2023-05-06T22:35:14.526Z,14.53
2023-05-06T22:38:17.619Z,14.55
2023-05-06T22:41:21.573Z,14.64
2023-05-06T22:44:24.660Z,14.64
2023-05-06T22:47:27.749Z,14.52
2023-05-06T22:50:30.410Z,14.57
2023-05-06T22:53:33.616Z,14.71
2023-05-06T22:56:36.274Z,14.65
2023-05-06T22:59:39.230Z,14.59
2023-05-06T23:02:42.088Z,14.57
2023-05-06T23:05:45.958Z,14.48
2023-05-06T23:08:48.634Z,14.76
2023-05-06T23:11:51.670Z,14.70
2023-05-06T23:14:54.503Z,14.78
2023-05-06T23:17:57.509Z,14.75
2023-05-06T23:21:00.353Z,14.62
2023-05-06T23:24:03.496Z,14.72
2023-05-06T23:27:06.194Z,14.59
2023-05-06T23:30:10.755Z,14.46
2023-05-06T23:33:13.423Z,14.40
2023-05-06T23:36:17.379Z,14.38
2023-05-06T23:39:19.975Z,14.36
2023-05-06T23:42:24.363Z,14.14
2023-05-06T23:45:29.058Z,14.28
2023-05-06T23:48:33.578Z,14.32
2023-05-06T23:51:36.450Z,14.19
2023-05-06T23:54:39.478Z,14.05
2023-05-06T23:57:42.229Z,14.04
